Terminal Aerodrome Forecast
Issued by NWS Shreveport, LA

Home | Current Version | Previous Version | Text Only | Print | Product List | Glossary On
Versions: 1 2 3 4 5 6 7 8 9 10 11 12 13 14 15 16 17 18 19
312
FTUS44 KSHV 231139
TAFELD
TAF
KELD 231139Z 2312/2412 16004KT P6SM SCT250
     FM231500 16009KT P6SM SCT250
     FM240600 19009KT P6SM BKN250=

USA.gov is the U.S. government's official web portal to all federal, state and local government web resources and services.